createdAt,value
2018-11-01T00:01:05.380Z,7.00
2018-11-01T00:03:34.327Z,10.77
2018-11-01T00:06:02.882Z,11.20
2018-11-01T00:08:31.425Z,8.43
2018-11-01T00:10:59.917Z,7.93
2018-11-01T00:13:28.388Z,7.60
2018-11-01T00:15:56.930Z,5.97
2018-11-01T00:18:25.444Z,9.20
2018-11-01T00:20:53.969Z,9.40
2018-11-01T00:23:22.781Z,7.30
2018-11-01T00:25:51.282Z,6.90
2018-11-01T00:28:19.855Z,8.40
2018-11-01T00:30:48.407Z,10.67
2018-11-01T00:33:16.942Z,6.10
2018-11-01T00:35:45.553Z,7.97
2018-11-01T00:38:14.121Z,6.30
2018-11-01T00:40:42.631Z,8.63
2018-11-01T00:43:11.162Z,7.30
2018-11-01T00:45:39.734Z,9.97
2018-11-01T00:48:08.225Z,7.77
2018-11-01T00:50:36.731Z,6.10
2018-11-01T00:53:05.242Z,6.93
2018-11-01T00:55:33.766Z,6.37
2018-11-01T00:58:02.373Z,6.90
2018-11-01T01:00:30.989Z,7.80
2018-11-01T01:02:59.529Z,9.20
2018-11-01T01:05:28.110Z,6.90
2018-11-01T01:07:56.691Z,8.80
2018-11-01T01:10:25.173Z,9.87
2018-11-01T01:12:53.686Z,5.80
2018-11-01T01:15:22.173Z,8.90
2018-11-01T01:17:50.679Z,6.17
2018-11-01T01:20:19.225Z,7.90
2018-11-01T01:22:48.255Z,10.23
2018-11-01T01:25:18.830Z,8.80
2018-11-01T01:27:47.668Z,7.20
2018-11-01T01:30:19.144Z,7.37
2018-11-01T01:32:48.137Z,10.63
2018-11-01T01:35:16.897Z,9.67
2018-11-01T01:37:45.713Z,9.47
2018-11-01T01:40:14.253Z,10.20
2018-11-01T01:42:48.093Z,10.20
2018-11-01T01:45:16.677Z,13.50
2018-11-01T01:47:45.193Z,8.27
2018-11-01T01:50:15.071Z,9.27
2018-11-01T01:52:44.375Z,8.70
2018-11-01T01:55:12.977Z,9.53
2018-11-01T01:57:41.505Z,9.70
2018-11-01T02:00:12.593Z,10.03
2018-11-01T02:02:45.544Z,9.20
2018-11-01T02:05:14.107Z,10.20
2018-11-01T02:07:42.709Z,12.17
2018-11-01T02:10:13.940Z,10.60
2018-11-01T02:12:42.498Z,10.70
2018-11-01T02:15:13.325Z,10.73
2018-11-01T02:17:42.449Z,10.13
2018-11-01T02:20:12.635Z,10.10
2018-11-01T02:22:41.825Z,8.77
2018-11-01T02:25:10.643Z,9.57
2018-11-01T02:27:44.524Z,10.57
2018-11-01T02:30:14.255Z,10.17
2018-11-01T02:32:43.502Z,11.93
2018-11-01T02:35:13.394Z,8.70
2018-11-01T02:37:42.241Z,7.20
2018-11-01T02:40:11.318Z,9.47
2018-11-01T02:42:40.387Z,8.87
2018-11-01T02:45:09.714Z,7.47
2018-11-01T02:47:38.513Z,6.10
2018-11-01T02:50:07.646Z,10.07
2018-11-01T02:52:36.211Z,13.30
2018-11-01T02:55:05.174Z,7.20
2018-11-01T02:57:33.667Z,9.67
2018-11-01T03:00:02.171Z,6.50
2018-11-01T03:02:30.937Z,8.90
2018-11-01T03:04:59.529Z,8.70
2018-11-01T03:07:28.092Z,9.40
2018-11-01T03:09:56.695Z,9.27
2018-11-01T03:12:25.218Z,7.77
2018-11-01T03:14:53.758Z,9.10
2018-11-01T03:17:22.334Z,8.10
2018-11-01T03:19:50.822Z,5.60
2018-11-01T03:22:19.329Z,8.93
2018-11-01T03:24:47.863Z,5.97
2018-11-01T03:27:16.350Z,6.03
2018-11-01T03:29:44.854Z,8.07
2018-11-01T03:32:13.397Z,9.25
2018-11-01T03:34:41.883Z,6.00
2018-11-01T03:37:10.430Z,6.90
2018-11-01T03:39:38.894Z,5.33
2018-11-01T03:42:07.414Z,5.83
2018-11-01T03:44:35.961Z,6.20
2018-11-01T03:47:04.445Z,7.03
2018-11-01T03:49:32.979Z,7.13
2018-11-01T03:52:01.582Z,7.80
2018-11-01T03:54:30.143Z,4.90
2018-11-01T03:56:58.705Z,5.67
2018-11-01T03:59:27.171Z,7.03
2018-11-01T04:01:55.697Z,6.30
2018-11-01T04:04:24.185Z,5.70
2018-11-01T04:06:52.693Z,5.40
2018-11-01T04:09:21.210Z,7.53
2018-11-01T04:11:49.753Z,9.40
2018-11-01T04:14:18.213Z,5.97
2018-11-01T04:16:46.764Z,5.17
2018-11-01T04:19:15.292Z,6.33
2018-11-01T04:21:43.790Z,6.50
2018-11-01T04:24:12.470Z,4.20
2018-11-01T04:26:40.973Z,5.07
2018-11-01T04:29:09.558Z,5.00
2018-11-01T04:31:38.054Z,6.60
2018-11-01T04:34:06.585Z,5.70
2018-11-01T04:36:35.110Z,5.47
2018-11-01T04:39:04.141Z,6.17
2018-11-01T04:41:32.635Z,5.33
2018-11-01T04:44:01.184Z,5.43
2018-11-01T04:46:29.758Z,5.50
2018-11-01T04:48:58.303Z,4.33
2018-11-01T04:51:26.761Z,5.80
2018-11-01T04:53:55.246Z,4.90
2018-11-01T04:56:23.759Z,4.60
2018-11-01T04:58:52.415Z,6.00
2018-11-01T05:01:22.329Z,5.47
2018-11-01T05:03:52.801Z,5.30
2018-11-01T05:06:21.730Z,7.47
2018-11-01T05:08:50.335Z,7.40
2018-11-01T05:11:19.259Z,5.60
2018-11-01T05:13:48.445Z,7.43
2018-11-01T05:16:17.013Z,7.20
2018-11-01T05:18:46.072Z,5.70
2018-11-01T05:21:15.074Z,6.13
2018-11-01T05:23:43.581Z,5.67
2018-11-01T05:26:12.074Z,5.90
2018-11-01T05:28:40.643Z,6.90
2018-11-01T05:31:09.154Z,4.53
2018-11-01T05:33:37.691Z,6.37
2018-11-01T05:36:06.382Z,5.03
2018-11-01T05:38:34.950Z,6.30
2018-11-01T05:41:03.462Z,10.43
2018-11-01T05:43:31.991Z,6.40
2018-11-01T05:46:00.476Z,9.60
2018-11-01T05:48:29.050Z,9.10
2018-11-01T05:50:57.550Z,10.80
2018-11-01T05:53:26.034Z,6.00
2018-11-01T05:55:54.553Z,7.43
2018-11-01T05:58:23.012Z,5.40
2018-11-01T06:00:51.612Z,9.77
2018-11-01T06:04:44.747Z,8.47
2018-11-01T06:07:13.357Z,8.70
2018-11-01T06:09:41.858Z,7.43
2018-11-01T06:12:10.436Z,5.27
2018-11-01T06:14:39.026Z,5.07
2018-11-01T06:17:07.564Z,6.87
2018-11-01T06:19:36.115Z,5.03
2018-11-01T06:22:04.714Z,6.57
2018-11-01T06:24:33.237Z,12.23
2018-11-01T06:27:01.754Z,7.43
2018-11-01T06:29:30.282Z,7.57
2018-11-01T06:31:58.807Z,6.30
2018-11-01T06:34:39.533Z,7.00
2018-11-01T06:37:08.022Z,5.50
2018-11-01T06:39:36.513Z,5.10
2018-11-01T06:42:05.038Z,8.47
2018-11-01T06:44:33.601Z,6.80
2018-11-01T06:47:02.178Z,10.20
2018-11-01T06:49:30.758Z,8.73
2018-11-01T06:51:59.229Z,6.62
2018-11-01T06:54:27.969Z,8.70
2018-11-01T06:56:56.483Z,7.03
2018-11-01T06:59:25.137Z,8.40
2018-11-01T07:01:53.566Z,7.90
2018-11-01T07:04:22.179Z,9.03
2018-11-01T07:06:50.687Z,8.07
2018-11-01T07:09:19.183Z,6.37
2018-11-01T07:11:47.765Z,7.13
2018-11-01T07:14:16.332Z,6.93
2018-11-01T07:16:44.813Z,8.90
2018-11-01T07:19:13.370Z,5.87
2018-11-01T07:21:41.946Z,6.77
2018-11-01T07:24:10.426Z,6.50
2018-11-01T07:26:38.938Z,9.10
2018-11-01T07:29:07.532Z,9.70
2018-11-01T07:31:36.058Z,23.23
2018-11-01T07:34:04.643Z,5.90
2018-11-01T07:36:33.290Z,6.57
2018-11-01T07:39:01.841Z,6.57
2018-11-01T07:41:30.416Z,8.03
2018-11-01T07:43:58.969Z,7.23
2018-11-01T07:46:27.527Z,6.27
2018-11-01T07:48:56.069Z,8.20
2018-11-01T07:51:24.775Z,5.67
2018-11-01T07:53:53.355Z,6.83
2018-11-01T07:56:22.052Z,5.63
2018-11-01T07:58:50.542Z,5.20
2018-11-01T08:01:19.105Z,7.97
2018-11-01T08:03:47.670Z,7.20
2018-11-01T08:06:16.194Z,9.43
2018-11-01T08:08:44.714Z,5.87
2018-11-01T08:11:13.249Z,6.10
2018-11-01T08:13:41.769Z,8.00
2018-11-01T08:16:10.317Z,8.57
2018-11-01T08:18:39.084Z,6.70
2018-11-01T08:21:07.814Z,6.40
2018-11-01T08:23:36.313Z,7.93
2018-11-01T08:26:04.932Z,10.17
2018-11-01T08:28:33.498Z,9.23
2018-11-01T08:31:02.016Z,10.80
2018-11-01T08:33:30.526Z,9.47
2018-11-01T08:35:59.055Z,6.60
2018-11-01T08:38:27.558Z,5.93
2018-11-01T08:40:56.204Z,10.57
2018-11-01T08:43:24.653Z,6.20
2018-11-01T08:45:53.146Z,6.93
2018-11-01T08:48:21.694Z,6.03
2018-11-01T08:50:50.180Z,5.67
2018-11-01T08:53:18.698Z,8.33
2018-11-01T08:55:47.241Z,5.90
2018-11-01T08:58:15.750Z,4.93
2018-11-01T09:00:44.333Z,4.53
2018-11-01T09:03:12.873Z,5.13
2018-11-01T09:05:41.387Z,4.67
2018-11-01T09:08:10.019Z,3.87
2018-11-01T09:10:38.690Z,4.77
2018-11-01T09:13:07.165Z,5.60
2018-11-01T09:15:35.713Z,6.40
2018-11-01T09:18:04.189Z,3.20
2018-11-01T09:20:32.758Z,4.30
2018-11-01T09:23:01.346Z,9.70
2018-11-01T09:25:29.898Z,6.70
2018-11-01T09:27:58.501Z,6.20
2018-11-01T09:30:26.981Z,5.57
2018-11-01T09:32:55.512Z,4.03
2018-11-01T09:35:24.176Z,4.40
2018-11-01T09:37:52.670Z,6.93
2018-11-01T09:40:21.209Z,6.12
2018-11-01T09:42:49.712Z,4.97
2018-11-01T09:45:18.202Z,5.23
2018-11-01T09:47:46.901Z,8.93
2018-11-01T09:50:15.373Z,5.60
2018-11-01T09:52:43.890Z,6.40
2018-11-01T09:55:12.443Z,5.50
2018-11-01T09:57:40.953Z,5.50
2018-11-01T10:00:12.166Z,7.10
2018-11-01T10:02:40.785Z,6.20
2018-11-01T10:05:09.969Z,7.80
2018-11-01T10:07:38.910Z,4.30
2018-11-01T10:10:10.490Z,4.55
2018-11-01T10:12:39.548Z,4.23
2018-11-01T10:15:09.542Z,4.75
2018-11-01T10:17:38.344Z,4.77
2018-11-01T10:20:08.834Z,5.70
2018-11-01T10:22:37.445Z,8.80
2018-11-01T10:25:07.005Z,6.70
2018-11-01T10:27:35.608Z,8.50
2018-11-01T10:30:04.195Z,9.50
2018-11-01T10:32:32.779Z,6.23
2018-11-01T10:35:01.251Z,6.47
2018-11-01T10:37:29.887Z,5.60
2018-11-01T10:39:58.397Z,5.50
2018-11-01T10:42:26.901Z,6.10
2018-11-01T10:44:55.492Z,5.83
2018-11-01T10:47:24.101Z,5.80
2018-11-01T10:49:52.674Z,8.03
2018-11-01T10:52:21.238Z,7.87
2018-11-01T10:54:49.773Z,6.53
2018-11-01T10:57:18.282Z,6.80
2018-11-01T10:59:46.859Z,10.00
2018-11-01T11:02:15.358Z,7.37
2018-11-01T11:04:43.918Z,6.00
2018-11-01T11:07:12.548Z,7.80
2018-11-01T11:09:41.065Z,6.97
2018-11-01T11:12:09.666Z,6.57
2018-11-01T11:14:38.238Z,7.40
2018-11-01T11:17:06.761Z,6.60
2018-11-01T11:19:35.337Z,5.40
2018-11-01T11:22:03.884Z,7.00
2018-11-01T11:24:32.444Z,6.50
2018-11-01T11:27:01.030Z,7.60
2018-11-01T11:29:29.566Z,7.07
2018-11-01T11:31:58.191Z,6.73
2018-11-01T11:34:26.817Z,7.83
2018-11-01T11:36:55.370Z,9.40
2018-11-01T11:39:23.911Z,12.50
2018-11-01T11:41:52.529Z,9.83
2018-11-01T11:44:21.067Z,8.07
2018-11-01T11:46:49.569Z,7.73
2018-11-01T11:49:18.171Z,7.43
2018-11-01T11:51:46.686Z,10.37
2018-11-01T11:54:15.217Z,6.50
2018-11-01T11:56:43.828Z,8.23
2018-11-01T11:59:12.343Z,6.80
2018-11-01T12:01:40.888Z,6.93
2018-11-01T12:04:09.533Z,8.73
2018-11-01T12:06:38.051Z,8.40
2018-11-01T12:09:07.918Z,12.23
2018-11-01T12:11:36.501Z,8.18
2018-11-01T12:14:05.161Z,6.63
2018-11-01T12:16:33.712Z,6.40
2018-11-01T12:19:02.289Z,7.80
2018-11-01T12:21:30.839Z,7.77
2018-11-01T12:23:59.392Z,6.17
2018-11-01T12:26:27.925Z,6.80
2018-11-01T12:28:56.470Z,8.60
2018-11-01T12:31:25.039Z,6.13
2018-11-01T12:33:53.555Z,6.37
2018-11-01T12:36:22.055Z,6.43
2018-11-01T12:38:50.606Z,7.00
2018-11-01T12:41:19.298Z,10.53
2018-11-01T12:43:47.757Z,9.70
2018-11-01T12:46:16.306Z,13.48
2018-11-01T12:48:44.860Z,8.80
2018-11-01T12:51:13.345Z,7.00
2018-11-01T12:53:41.917Z,7.43
2018-11-01T12:56:10.766Z,9.70
2018-11-01T12:58:39.284Z,9.10
2018-11-01T13:01:07.870Z,7.73
2018-11-01T13:03:36.408Z,9.33
2018-11-01T13:06:05.049Z,8.20
2018-11-01T13:08:33.666Z,8.10
2018-11-01T13:11:02.209Z,8.90
2018-11-01T13:13:30.778Z,13.63
2018-11-01T13:15:59.271Z,6.50
2018-11-01T13:18:27.905Z,7.73
2018-11-01T13:20:56.412Z,9.90
2018-11-01T13:23:24.963Z,7.47
2018-11-01T13:25:53.625Z,10.93
2018-11-01T13:28:22.111Z,6.57
2018-11-01T13:30:50.675Z,9.57
2018-11-01T13:33:19.218Z,10.20
2018-11-01T13:35:47.766Z,12.80
2018-11-01T13:38:16.276Z,17.50
2018-11-01T13:40:45.371Z,17.03
2018-11-01T13:43:13.372Z,14.40
2018-11-01T13:45:41.893Z,14.37
2018-11-01T13:48:10.591Z,18.53
2018-11-01T13:50:39.037Z,16.90
2018-11-01T13:53:07.553Z,12.03
2018-11-01T13:55:36.069Z,13.33
2018-11-01T13:58:04.578Z,12.47
2018-11-01T14:00:33.121Z,52.60
2018-11-01T14:03:01.706Z,10.60
2018-11-01T14:05:30.335Z,9.23
2018-11-01T14:07:58.871Z,13.83
2018-11-01T14:10:27.391Z,16.03
2018-11-01T14:12:55.927Z,18.00
2018-11-01T14:15:24.983Z,10.80
2018-11-01T14:17:53.116Z,10.33
2018-11-01T14:20:21.656Z,9.80
2018-11-01T14:22:50.134Z,13.30
2018-11-01T14:25:18.768Z,11.80
2018-11-01T14:27:47.709Z,12.10
2018-11-01T14:30:17.054Z,8.27
2018-11-01T14:32:45.675Z,10.73
2018-11-01T14:35:14.282Z,11.20
2018-11-01T14:37:42.903Z,10.23
2018-11-01T14:40:12.681Z,10.90
2018-11-01T14:42:41.295Z,12.47
2018-11-01T14:45:10.377Z,9.83
2018-11-01T14:47:39.201Z,23.00
2018-11-01T14:50:09.093Z,36.55
2018-11-01T14:52:38.008Z,24.53
2018-11-01T14:55:08.201Z,33.17
2018-11-01T14:57:36.866Z,36.90
2018-11-01T15:00:04.245Z,14.80
2018-11-01T15:02:32.833Z,11.97
2018-11-01T15:05:01.408Z,13.33
2018-11-01T15:07:29.941Z,14.07
2018-11-01T15:09:58.461Z,12.00
2018-11-01T15:12:27.013Z,15.90
2018-11-01T15:14:55.573Z,13.83
2018-11-01T15:17:24.134Z,49.30
2018-11-01T15:19:52.704Z,17.37
2018-11-01T15:22:21.222Z,17.10
2018-11-01T15:24:49.797Z,16.97
2018-11-01T15:27:18.692Z,21.50
2018-11-01T15:29:47.303Z,17.60
2018-11-01T15:32:21.265Z,16.40
2018-11-01T15:34:49.765Z,19.27
2018-11-01T15:37:18.381Z,30.20
2018-11-01T15:39:46.951Z,22.00
2018-11-01T15:42:15.511Z,29.87
2018-11-01T15:44:44.114Z,20.50
2018-11-01T15:47:12.717Z,20.70
2018-11-01T15:49:41.395Z,16.30
2018-11-01T15:52:09.964Z,26.83
2018-11-01T15:54:38.542Z,21.00
2018-11-01T15:57:07.154Z,18.77
2018-11-01T15:59:35.785Z,17.27
2018-11-01T16:02:04.305Z,18.17
2018-11-01T16:04:32.814Z,18.80
2018-11-01T16:07:01.358Z,19.83
2018-11-01T16:09:29.964Z,27.80
2018-11-01T16:11:58.513Z,22.00
2018-11-01T16:14:27.041Z,24.00
2018-11-01T16:16:55.555Z,19.43
2018-11-01T16:19:24.207Z,21.30
2018-11-01T16:21:52.670Z,22.77
2018-11-01T16:24:21.274Z,26.07
2018-11-01T16:26:49.971Z,29.60
2018-11-01T16:29:18.478Z,28.03
2018-11-01T16:31:47.039Z,21.70
2018-11-01T16:34:15.623Z,24.67
2018-11-01T16:36:44.368Z,19.70
2018-11-01T16:39:13.297Z,20.00
2018-11-01T16:41:41.854Z,24.23
2018-11-01T16:44:11.289Z,22.07
2018-11-01T16:46:39.922Z,25.70
2018-11-01T16:49:09.321Z,20.30
2018-11-01T16:51:37.932Z,19.90
2018-11-01T16:54:06.552Z,23.83
2018-11-01T16:56:35.277Z,43.80
2018-11-01T16:59:03.863Z,314.90
2018-11-01T17:01:32.723Z,64.20
2018-11-01T17:04:01.255Z,26.37
2018-11-01T17:06:29.854Z,41.03
2018-11-01T17:08:58.466Z,33.17
2018-11-01T17:11:27.043Z,25.87
2018-11-01T17:13:56.180Z,26.73
2018-11-01T17:16:24.721Z,26.07
2018-11-01T17:18:53.263Z,25.10
2018-11-01T17:21:21.861Z,24.97
2018-11-01T17:23:50.416Z,56.17
2018-11-01T17:26:18.939Z,28.17
2018-11-01T17:28:47.496Z,28.83
2018-11-01T17:31:15.989Z,30.73
2018-11-01T17:33:44.499Z,30.97
2018-11-01T17:36:13.049Z,27.50
2018-11-01T17:38:41.622Z,31.37
2018-11-01T17:41:10.188Z,31.87
2018-11-01T17:43:38.824Z,46.63
2018-11-01T17:46:07.483Z,33.03
2018-11-01T17:48:35.903Z,41.27
2018-11-01T17:51:04.499Z,33.80
2018-11-01T17:53:33.030Z,30.43
2018-11-01T17:56:01.710Z,30.60
2018-11-01T17:58:30.209Z,32.87
2018-11-01T18:00:58.779Z,40.43
2018-11-01T18:03:27.391Z,33.10
2018-11-01T18:05:55.938Z,32.83
2018-11-01T18:08:24.584Z,30.50
2018-11-01T18:10:53.702Z,27.90
2018-11-01T18:13:22.280Z,30.30
2018-11-01T18:15:50.786Z,37.50
2018-11-01T18:18:19.938Z,38.93
2018-11-01T18:20:48.434Z,48.57
2018-11-01T18:23:17.120Z,45.33
2018-11-01T18:25:48.236Z,47.50
2018-11-01T18:28:17.446Z,51.53
2018-11-01T18:30:46.017Z,51.30
2018-11-01T18:33:14.597Z,45.00
2018-11-01T18:35:43.089Z,42.40
2018-11-01T18:38:11.642Z,42.70
2018-11-01T18:40:40.307Z,43.83
2018-11-01T18:43:08.925Z,43.73
2018-11-01T18:45:37.481Z,37.70
2018-11-01T18:48:06.397Z,55.17
2018-11-01T18:50:35.509Z,50.80
2018-11-01T18:53:04.014Z,51.67
2018-11-01T18:55:32.634Z,56.97
2018-11-01T18:58:01.330Z,42.40
2018-11-01T19:00:29.891Z,48.07
2018-11-01T19:02:59.037Z,58.87
2018-11-01T19:05:27.545Z,42.97
2018-11-01T19:07:56.114Z,42.50
2018-11-01T19:10:25.194Z,54.17
2018-11-01T19:12:54.927Z,47.80
2018-11-01T19:15:23.502Z,52.73
2018-11-01T19:17:52.376Z,50.20
2018-11-01T19:20:21.010Z,51.73
2018-11-01T19:22:49.573Z,48.67
2018-11-01T19:25:18.167Z,43.40
2018-11-01T19:27:46.772Z,43.97
2018-11-01T19:30:15.294Z,42.77
2018-11-01T19:32:43.925Z,44.80
2018-11-01T19:35:13.397Z,43.17
2018-11-01T19:37:42.628Z,43.40
2018-11-01T19:40:13.603Z,43.03
2018-11-01T19:42:42.517Z,48.23
2018-11-01T19:45:11.139Z,42.50
2018-11-01T19:47:39.821Z,42.80
2018-11-01T19:50:10.444Z,45.60
2018-11-01T19:52:39.030Z,47.40
2018-11-01T19:55:08.561Z,45.00
2018-11-01T19:57:37.178Z,50.87
2018-11-01T20:00:07.719Z,45.10
2018-11-01T20:02:36.268Z,42.60
2018-11-01T20:05:05.081Z,50.67
2018-11-01T20:07:33.582Z,43.77
2018-11-01T20:10:02.196Z,42.97
2018-11-01T20:12:30.747Z,42.20
2018-11-01T20:14:59.291Z,45.83
2018-11-01T20:17:27.863Z,48.47
2018-11-01T20:19:56.435Z,49.77
2018-11-01T20:22:25.008Z,41.10
2018-11-01T20:24:53.763Z,47.33
2018-11-01T20:27:22.387Z,48.95
2018-11-01T20:29:50.890Z,38.10
2018-11-01T20:32:19.439Z,48.43
2018-11-01T20:34:47.999Z,42.23
2018-11-01T20:37:16.494Z,39.17
2018-11-01T20:39:45.007Z,40.37
2018-11-01T20:42:13.556Z,41.83
2018-11-01T20:44:42.069Z,43.63
2018-11-01T20:47:10.633Z,46.03
2018-11-01T20:49:39.162Z,47.10
2018-11-01T20:52:07.764Z,42.63
2018-11-01T20:54:36.282Z,43.50
2018-11-01T20:57:05.234Z,47.47
2018-11-01T20:59:33.669Z,49.50
2018-11-01T21:02:02.202Z,48.53
2018-11-01T21:04:30.713Z,50.83
2018-11-01T21:08:01.789Z,46.93
2018-11-01T21:10:30.322Z,44.40
2018-11-01T21:12:58.894Z,50.17
2018-11-01T21:15:27.397Z,49.67
2018-11-01T21:17:55.883Z,56.73
2018-11-01T21:20:24.382Z,50.73
2018-11-01T21:22:52.933Z,46.67
2018-11-01T21:25:21.441Z,49.90
2018-11-01T21:27:49.989Z,48.17
2018-11-01T21:30:18.586Z,46.73
2018-11-01T21:32:47.074Z,40.80
2018-11-01T21:35:15.611Z,48.57
2018-11-01T21:37:44.049Z,47.13
2018-11-01T21:40:12.606Z,38.43
2018-11-01T21:42:41.130Z,43.73
2018-11-01T21:45:11.835Z,44.60
2018-11-01T21:47:40.456Z,46.07
2018-11-01T21:50:09.239Z,44.07
2018-11-01T21:52:37.886Z,42.60
2018-11-01T21:55:06.961Z,40.00
2018-11-01T21:57:35.613Z,49.13
2018-11-01T22:00:04.230Z,38.07
2018-11-01T22:02:32.758Z,36.73
2018-11-01T22:05:01.259Z,38.60
2018-11-01T22:07:29.825Z,41.50
2018-11-01T22:09:58.449Z,42.07
2018-11-01T22:12:26.972Z,40.10
2018-11-01T22:14:55.528Z,41.97
2018-11-01T22:17:24.065Z,39.60
2018-11-01T22:19:52.561Z,34.63
2018-11-01T22:22:21.139Z,38.17
2018-11-01T22:24:49.694Z,37.00
2018-11-01T22:27:18.252Z,41.77
2018-11-01T22:29:46.805Z,38.40
2018-11-01T22:32:15.317Z,37.30
2018-11-01T22:34:43.848Z,35.67
2018-11-01T22:37:12.429Z,41.50
2018-11-01T22:39:40.972Z,40.67
2018-11-01T22:42:09.469Z,38.40
2018-11-01T22:44:38.077Z,43.03
2018-11-01T22:47:06.988Z,42.17
2018-11-01T22:49:35.505Z,39.20
2018-11-01T22:52:04.051Z,33.90
2018-11-01T22:54:32.579Z,34.90
2018-11-01T22:57:01.173Z,30.70
2018-11-01T22:59:29.680Z,36.77
2018-11-01T23:01:58.161Z,37.10
2018-11-01T23:04:26.746Z,38.70
2018-11-01T23:06:55.346Z,36.27
2018-11-01T23:09:23.843Z,35.93
2018-11-01T23:11:52.330Z,34.07
2018-11-01T23:14:20.817Z,32.67
2018-11-01T23:16:49.315Z,36.07
2018-11-01T23:19:17.891Z,35.00
2018-11-01T23:21:46.447Z,35.07
2018-11-01T23:24:15.044Z,32.97
2018-11-01T23:26:43.616Z,34.37
2018-11-01T23:29:12.154Z,34.50
2018-11-01T23:31:40.718Z,35.13
2018-11-01T23:34:09.264Z,33.43
2018-11-01T23:36:42.862Z,32.93
2018-11-01T23:39:16.404Z,33.70
2018-11-01T23:41:50.266Z,34.73
2018-11-01T23:44:23.950Z,40.17
2018-11-01T23:46:57.617Z,33.30
2018-11-01T23:49:29.161Z,36.23
2018-11-01T23:52:01.701Z,37.20
2018-11-01T23:54:30.246Z,33.43
2018-11-01T23:56:58.894Z,33.00
2018-11-01T23:59:27.381Z,41.77
